sensor_id;sensor_type;location;lat;lon;timestamp;pressure;altitude;pressure_sealevel;temperature;humidity
71109;BME280;59614;51.012;-1.648;2024-03-08T00:02:03;100356.28;;;4.94;100.00
71109;BME280;59614;51.012;-1.648;2024-03-08T00:04:28;100360.66;;;5.00;100.00
71109;BME280;59614;51.012;-1.648;2024-03-08T00:06:53;100351.88;;;4.91;100.00
71109;BME280;59614;51.012;-1.648;2024-03-08T00:09:19;100344.97;;;5.03;100.00
71109;BME280;59614;51.012;-1.648;2024-03-08T00:11:44;100358.88;;;4.94;100.00
71109;BME280;59614;51.012;-1.648;2024-03-08T00:14:09;100349.25;;;4.84;100.00
71109;BME280;59614;51.012;-1.648;2024-03-08T00:16:35;100352.78;;;4.92;100.00
71109;BME280;59614;51.012;-1.648;2024-03-08T00:19:00;100344.88;;;4.83;100.00
71109;BME280;59614;51.012;-1.648;2024-03-08T00:21:26;100348.41;;;4.95;100.00
71109;BME280;59614;51.012;-1.648;2024-03-08T00:23:52;100349.25;;;4.90;100.00
71109;BME280;59614;51.012;-1.648;2024-03-08T00:26:20;100345.78;;;4.91;100.00
71109;BME280;59614;51.012;-1.648;2024-03-08T00:28:47;100339.66;;;4.84;100.00
71109;BME280;59614;51.012;-1.648;2024-03-08T00:31:13;100335.25;;;4.80;100.00
71109;BME280;59614;51.012;-1.648;2024-03-08T00:33:39;100329.16;;;4.78;100.00
71109;BME280;59614;51.012;-1.648;2024-03-08T00:36:04;100329.19;;;4.84;100.00
71109;BME280;59614;51.012;-1.648;2024-03-08T00:38:30;100318.69;;;4.79;100.00
71109;BME280;59614;51.012;-1.648;2024-03-08T00:40:56;100314.34;;;4.83;100.00
71109;BME280;59614;51.012;-1.648;2024-03-08T00:43:22;100309.06;;;4.75;100.00
71109;BME280;59614;51.012;-1.648;2024-03-08T00:45:47;100314.31;;;4.72;100.00
71109;BME280;59614;51.012;-1.648;2024-03-08T00:48:12;100305.56;;;4.67;100.00
71109;BME280;59614;51.012;-1.648;2024-03-08T00:50:38;100308.16;;;4.69;100.00
71109;BME280;59614;51.012;-1.648;2024-03-08T00:53:03;100304.75;;;4.76;100.00
71109;BME280;59614;51.012;-1.648;2024-03-08T00:55:29;100298.56;;;4.64;100.00
71109;BME280;59614;51.012;-1.648;2024-03-08T00:57:55;100296.91;;;4.81;100.00
71109;BME280;59614;51.012;-1.648;2024-03-08T01:00:20;100293.38;;;4.75;100.00
71109;BME280;59614;51.012;-1.648;2024-03-08T01:02:46;100293.47;;;4.88;100.00
71109;BME280;59614;51.012;-1.648;2024-03-08T01:05:11;100287.34;;;4.86;100.00
71109;BME280;59614;51.012;-1.648;2024-03-08T01:07:37;100282.06;;;4.76;100.00
71109;BME280;59614;51.012;-1.648;2024-03-08T01:10:03;100282.91;;;4.69;100.00
71109;BME280;59614;51.012;-1.648;2024-03-08T01:12:28;100275.09;;;4.80;100.00
71109;BME280;59614;51.012;-1.648;2024-03-08T01:14:55;100275.97;;;4.77;100.00
71109;BME280;59614;51.012;-1.648;2024-03-08T01:17:20;100278.59;;;4.79;100.00
71109;BME280;59614;51.012;-1.648;2024-03-08T01:19:45;100277.72;;;4.80;100.00
71109;BME280;59614;51.012;-1.648;2024-03-08T01:22:11;100277.69;;;4.69;100.00
71109;BME280;59614;51.012;-1.648;2024-03-08T01:24:36;100274.16;;;4.62;100.00
71109;BME280;59614;51.012;-1.648;2024-03-08T01:27:02;100273.28;;;4.62;100.00
71109;BME280;59614;51.012;-1.648;2024-03-08T01:29:28;100270.69;;;4.70;100.00
71109;BME280;59614;51.012;-1.648;2024-03-08T01:31:55;100256.69;;;4.57;100.00
71109;BME280;59614;51.012;-1.648;2024-03-08T01:34:21;100259.31;;;4.57;100.00
71109;BME280;59614;51.012;-1.648;2024-03-08T01:36:47;100251.50;;;4.60;100.00
71109;BME280;59614;51.012;-1.648;2024-03-08T01:39:13;100248.84;;;4.58;100.00
71109;BME280;59614;51.012;-1.648;2024-03-08T01:41:38;100239.28;;;4.56;100.00
71109;BME280;59614;51.012;-1.648;2024-03-08T01:44:05;100225.34;;;4.63;100.00
71109;BME280;59614;51.012;-1.648;2024-03-08T01:46:33;100218.38;;;4.54;100.00
71109;BME280;59614;51.012;-1.648;2024-03-08T01:48:58;100215.78;;;4.60;100.00
71109;BME280;59614;51.012;-1.648;2024-03-08T01:51:26;100214.00;;;4.55;100.00
71109;BME280;59614;51.012;-1.648;2024-03-08T01:53:55;100220.94;;;4.48;100.00
71109;BME280;59614;51.012;-1.648;2024-03-08T01:56:23;100209.63;;;4.54;100.00
71109;BME280;59614;51.012;-1.648;2024-03-08T01:58:48;100210.47;;;4.48;100.00
71109;BME280;59614;51.012;-1.648;2024-03-08T02:01:15;100201.78;;;4.52;100.00
71109;BME280;59614;51.012;-1.648;2024-03-08T02:03:40;100206.97;;;4.40;100.00
71109;BME280;59614;51.012;-1.648;2024-03-08T02:06:06;100190.44;;;4.45;100.00
71109;BME280;59614;51.012;-1.648;2024-03-08T02:08:35;100186.91;;;4.34;100.00
71109;BME280;59614;51.012;-1.648;2024-03-08T02:11:01;100171.22;;;4.34;100.00
71109;BME280;59614;51.012;-1.648;2024-03-08T02:13:27;100174.72;;;4.39;100.00
71109;BME280;59614;51.012;-1.648;2024-03-08T02:15:58;100168.63;;;4.37;100.00
71109;BME280;59614;51.012;-1.648;2024-03-08T02:18:27;100170.41;;;4.43;100.00
71109;BME280;59614;51.012;-1.648;2024-03-08T02:21:00;100160.75;;;4.29;100.00
71109;BME280;59614;51.012;-1.648;2024-03-08T02:23:26;100155.50;;;4.26;100.00
71109;BME280;59614;51.012;-1.648;2024-03-08T02:25:52;100146.84;;;4.35;100.00
71109;BME280;59614;51.012;-1.648;2024-03-08T02:28:18;100145.91;;;4.24;100.00
71109;BME280;59614;51.012;-1.648;2024-03-08T02:30:48;100139.84;;;4.31;100.00
71109;BME280;59614;51.012;-1.648;2024-03-08T02:33:15;100132.88;;;4.33;100.00
71109;BME280;59614;51.012;-1.648;2024-03-08T02:35:44;100122.44;;;4.27;100.00
71109;BME280;59614;51.012;-1.648;2024-03-08T02:38:16;100131.09;;;4.20;100.00
71109;BME280;59614;51.012;-1.648;2024-03-08T02:40:46;100125.03;;;4.24;100.00
71109;BME280;59614;51.012;-1.648;2024-03-08T02:43:13;100109.38;;;4.38;100.00
71109;BME280;59614;51.012;-1.648;2024-03-08T02:45:39;100113.72;;;4.31;100.00
71109;BME280;59614;51.012;-1.648;2024-03-08T02:48:07;100099.78;;;4.29;100.00
71109;BME280;59614;51.012;-1.648;2024-03-08T02:50:32;100106.69;;;4.14;100.00
71109;BME280;59614;51.012;-1.648;2024-03-08T02:52:59;100101.50;;;4.19;100.00
71109;BME280;59614;51.012;-1.648;2024-03-08T02:55:25;100092.78;;;4.22;100.00
71109;BME280;59614;51.012;-1.648;2024-03-08T02:57:52;100098.00;;;4.18;100.00
71109;BME280;59614;51.012;-1.648;2024-03-08T03:00:18;100098.00;;;4.22;100.00
71109;BME280;59614;51.012;-1.648;2024-03-08T03:02:44;100092.75;;;4.17;100.00
71109;BME280;59614;51.012;-1.648;2024-03-08T03:05:10;100083.19;;;4.16;100.00
71109;BME280;59614;51.012;-1.648;2024-03-08T03:07:36;100077.13;;;4.25;100.00
71109;BME280;59614;51.012;-1.648;2024-03-08T03:10:02;100078.78;;;4.07;100.00
71109;BME280;59614;51.012;-1.648;2024-03-08T03:12:28;100077.06;;;4.09;100.00
71109;BME280;59614;51.012;-1.648;2024-03-08T03:14:54;100065.78;;;4.23;100.00
71109;BME280;59614;51.012;-1.648;2024-03-08T03:17:24;100070.13;;;4.16;100.00
71109;BME280;59614;51.012;-1.648;2024-03-08T03:19:50;100065.75;;;4.10;100.00
71109;BME280;59614;51.012;-1.648;2024-03-08T03:22:17;100059.66;;;4.17;100.00
71109;BME280;59614;51.012;-1.648;2024-03-08T03:24:43;100055.31;;;4.13;100.00
71109;BME280;59614;51.012;-1.648;2024-03-08T03:27:08;100051.84;;;4.16;100.00
71109;BME280;59614;51.012;-1.648;2024-03-08T03:29:39;100050.97;;;4.18;100.00
71109;BME280;59614;51.012;-1.648;2024-03-08T03:32:08;100029.19;;;4.12;100.00
71109;BME280;59614;51.012;-1.648;2024-03-08T03:34:34;100035.28;;;4.12;100.00
71109;BME280;59614;51.012;-1.648;2024-03-08T03:37:02;100043.94;;;4.04;100.00
71109;BME280;59614;51.012;-1.648;2024-03-08T03:39:28;100031.78;;;4.07;100.00
71109;BME280;59614;51.012;-1.648;2024-03-08T03:41:57;100028.31;;;4.13;100.00
71109;BME280;59614;51.012;-1.648;2024-03-08T03:44:22;100021.31;;;4.01;100.00
71109;BME280;59614;51.012;-1.648;2024-03-08T03:46:49;100021.34;;;4.04;100.00
71109;BME280;59614;51.012;-1.648;2024-03-08T03:49:16;100023.97;;;4.10;100.00
71109;BME280;59614;51.012;-1.648;2024-03-08T03:51:41;100016.97;;;4.05;100.00
71109;BME280;59614;51.012;-1.648;2024-03-08T03:54:06;100017.84;;;4.08;100.00
71109;BME280;59614;51.012;-1.648;2024-03-08T03:56:32;100004.81;;;4.05;100.00
71109;BME280;59614;51.012;-1.648;2024-03-08T03:58:58;100011.75;;;4.05;100.00
71109;BME280;59614;51.012;-1.648;2024-03-08T04:01:23;100003.03;;;3.99;100.00
71109;BME280;59614;51.012;-1.648;2024-03-08T04:03:49;100009.09;;;3.97;100.00
71109;BME280;59614;51.012;-1.648;2024-03-08T04:06:14;100000.38;;;3.95;100.00
71109;BME280;59614;51.012;-1.648;2024-03-08T04:08:40;99997.81;;;3.96;100.00
71109;BME280;59614;51.012;-1.648;2024-03-08T04:11:06;99997.84;;;4.04;100.00
71109;BME280;59614;51.012;-1.648;2024-03-08T04:13:32;99981.25;;;3.90;100.00
71109;BME280;59614;51.012;-1.648;2024-03-08T04:15:58;99982.16;;;4.10;100.00
71109;BME280;59614;51.012;-1.648;2024-03-08T04:18:23;99982.13;;;3.96;100.00
71109;BME280;59614;51.012;-1.648;2024-03-08T04:20:48;99980.41;;;4.05;100.00
71109;BME280;59614;51.012;-1.648;2024-03-08T04:23:14;99975.97;;;3.83;100.00
71109;BME280;59614;51.012;-1.648;2024-03-08T04:25:41;99981.25;;;3.94;100.00
71109;BME280;59614;51.012;-1.648;2024-03-08T04:28:08;99972.56;;;4.00;100.00
71109;BME280;59614;51.012;-1.648;2024-03-08T04:30:37;99967.34;;;3.95;100.00
71109;BME280;59614;51.012;-1.648;2024-03-08T04:33:03;99969.03;;;3.85;100.00
71109;BME280;59614;51.012;-1.648;2024-03-08T04:35:29;99970.78;;;3.90;100.00
71109;BME280;59614;51.012;-1.648;2024-03-08T04:37:54;99967.28;;;3.89;100.00
71109;BME280;59614;51.012;-1.648;2024-03-08T04:40:19;99963.84;;;3.87;100.00
71109;BME280;59614;51.012;-1.648;2024-03-08T04:42:45;99962.06;;;3.84;100.00
71109;BME280;59614;51.012;-1.648;2024-03-08T04:45:10;99957.75;;;3.88;100.00
71109;BME280;59614;51.012;-1.648;2024-03-08T04:47:39;99946.41;;;3.84;100.00
71109;BME280;59614;51.012;-1.648;2024-03-08T04:50:05;99954.25;;;3.88;100.00
71109;BME280;59614;51.012;-1.648;2024-03-08T04:52:30;99955.06;;;3.79;100.00
71109;BME280;59614;51.012;-1.648;2024-03-08T04:54:56;99952.47;;;3.76;100.00
71109;BME280;59614;51.012;-1.648;2024-03-08T04:57:21;99949.00;;;3.77;100.00
71109;BME280;59614;51.012;-1.648;2024-03-08T04:59:47;99942.94;;;3.95;100.00
71109;BME280;59614;51.012;-1.648;2024-03-08T05:02:12;99937.69;;;3.76;100.00
71109;BME280;59614;51.012;-1.648;2024-03-08T05:04:37;99930.72;;;3.78;100.00
71109;BME280;59614;51.012;-1.648;2024-03-08T05:07:02;99929.84;;;3.81;100.00
71109;BME280;59614;51.012;-1.648;2024-03-08T05:09:29;99920.25;;;3.72;100.00
71109;BME280;59614;51.012;-1.648;2024-03-08T05:11:56;99922.88;;;3.70;100.00
71109;BME280;59614;51.012;-1.648;2024-03-08T05:14:23;99919.41;;;3.71;100.00
71109;BME280;59614;51.012;-1.648;2024-03-08T05:16:50;99919.38;;;3.65;100.00
71109;BME280;59614;51.012;-1.648;2024-03-08T05:19:16;99915.03;;;3.69;100.00
71109;BME280;59614;51.012;-1.648;2024-03-08T05:21:45;99916.75;;;3.64;100.00
71109;BME280;59614;51.012;-1.648;2024-03-08T05:24:10;99915.03;;;3.69;100.00
71109;BME280;59614;51.012;-1.648;2024-03-08T05:26:36;99912.44;;;3.69;100.00
71109;BME280;59614;51.012;-1.648;2024-03-08T05:29:03;99907.19;;;3.66;100.00
71109;BME280;59614;51.012;-1.648;2024-03-08T05:31:28;99905.44;;;3.66;100.00
71109;BME280;59614;51.012;-1.648;2024-03-08T05:33:54;99899.38;;;3.66;100.00
71109;BME280;59614;51.012;-1.648;2024-03-08T05:36:21;99901.06;;;3.61;100.00
71109;BME280;59614;51.012;-1.648;2024-03-08T05:38:46;99909.78;;;3.60;100.00
71109;BME280;59614;51.012;-1.648;2024-03-08T05:41:12;99903.66;;;3.51;100.00
71109;BME280;59614;51.012;-1.648;2024-03-08T05:43:37;99902.81;;;3.55;100.00
71109;BME280;59614;51.012;-1.648;2024-03-08T05:46:04;99904.50;;;3.46;100.00
71109;BME280;59614;51.012;-1.648;2024-03-08T05:48:30;99901.03;;;3.51;100.00
71109;BME280;59614;51.012;-1.648;2024-03-08T05:50:57;99892.41;;;3.63;100.00
71109;BME280;59614;51.012;-1.648;2024-03-08T05:53:22;99898.41;;;3.44;100.00
71109;BME280;59614;51.012;-1.648;2024-03-08T05:55:48;99911.41;;;3.39;100.00
71109;BME280;59614;51.012;-1.648;2024-03-08T05:58:14;99913.25;;;3.55;100.00
71109;BME280;59614;51.012;-1.648;2024-03-08T06:00:39;99904.50;;;3.44;100.00
71109;BME280;59614;51.012;-1.648;2024-03-08T06:03:05;99910.59;;;3.46;100.00
71109;BME280;59614;51.012;-1.648;2024-03-08T06:05:30;99918.41;;;3.43;100.00
71109;BME280;59614;51.012;-1.648;2024-03-08T06:07:56;99919.25;;;3.36;100.00
71109;BME280;59614;51.012;-1.648;2024-03-08T06:10:21;99925.31;;;3.32;100.00
71109;BME280;59614;51.012;-1.648;2024-03-08T06:12:47;99925.31;;;3.33;100.00
71109;BME280;59614;51.012;-1.648;2024-03-08T06:15:12;99922.72;;;3.36;100.00
71109;BME280;59614;51.012;-1.648;2024-03-08T06:17:41;99914.91;;;3.36;100.00
71109;BME280;59614;51.012;-1.648;2024-03-08T06:20:07;99904.44;;;3.30;100.00
71109;BME280;59614;51.012;-1.648;2024-03-08T06:22:41;99909.69;;;3.35;100.00
71109;BME280;59614;51.012;-1.648;2024-03-08T06:25:08;99906.16;;;3.30;100.00
71109;BME280;59614;51.012;-1.648;2024-03-08T06:27:34;99909.66;;;3.30;100.00
71109;BME280;59614;51.012;-1.648;2024-03-08T06:30:00;99909.66;;;3.32;100.00
71109;BME280;59614;51.012;-1.648;2024-03-08T06:32:25;99908.81;;;3.37;100.00
71109;BME280;59614;51.012;-1.648;2024-03-08T06:34:50;99908.00;;;3.52;100.00
71109;BME280;59614;51.012;-1.648;2024-03-08T06:37:16;99911.50;;;3.48;100.00
71109;BME280;59614;51.012;-1.648;2024-03-08T06:39:49;99906.22;;;3.37;100.00
71109;BME280;59614;51.012;-1.648;2024-03-08T06:42:16;99916.63;;;3.39;100.00
71109;BME280;59614;51.012;-1.648;2024-03-08T06:44:42;99918.38;;;3.40;100.00
71109;BME280;59614;51.012;-1.648;2024-03-08T06:47:14;99913.22;;;3.51;100.00
71109;BME280;59614;51.012;-1.648;2024-03-08T06:49:40;99913.19;;;3.43;100.00
71109;BME280;59614;51.012;-1.648;2024-03-08T06:52:06;99922.78;;;3.43;100.00
71109;BME280;59614;51.012;-1.648;2024-03-08T06:54:32;99928.84;;;3.43;100.00
71109;BME280;59614;51.012;-1.648;2024-03-08T06:56:57;99918.47;;;3.59;100.00
71109;BME280;59614;51.012;-1.648;2024-03-08T06:59:22;99920.19;;;3.47;100.00
71109;BME280;59614;51.012;-1.648;2024-03-08T07:01:48;99915.88;;;3.59;100.00
71109;BME280;59614;51.012;-1.648;2024-03-08T07:04:13;99909.69;;;3.41;100.00
71109;BME280;59614;51.012;-1.648;2024-03-08T07:06:38;99915.84;;;3.54;100.00
71109;BME280;59614;51.012;-1.648;2024-03-08T07:09:06;99894.09;;;3.47;100.00
71109;BME280;59614;51.012;-1.648;2024-03-08T07:11:31;99887.09;;;3.43;100.00
71109;BME280;59614;51.012;-1.648;2024-03-08T07:13:56;99889.72;;;3.49;100.00
71109;BME280;59614;51.012;-1.648;2024-03-08T07:16:23;99895.88;;;3.67;100.00
71109;BME280;59614;51.012;-1.648;2024-03-08T07:18:49;99888.97;;;3.81;100.00
71109;BME280;59614;51.012;-1.648;2024-03-08T07:21:17;99879.44;;;3.93;100.00
71109;BME280;59614;51.012;-1.648;2024-03-08T07:23:43;99882.91;;;4.07;100.00
71109;BME280;59614;51.012;-1.648;2024-03-08T07:26:20;99885.53;;;4.07;100.00
71109;BME280;59614;51.012;-1.648;2024-03-08T07:28:45;99878.56;;;4.06;100.00
71109;BME280;59614;51.012;-1.648;2024-03-08T07:31:10;99877.69;;;4.10;100.00
71109;BME280;59614;51.012;-1.648;2024-03-08T07:33:50;99889.91;;;4.31;100.00
71109;BME280;59614;51.012;-1.648;2024-03-08T07:36:16;99890.78;;;4.43;100.00
71109;BME280;59614;51.012;-1.648;2024-03-08T07:38:41;99885.56;;;4.44;100.00
71109;BME280;59614;51.012;-1.648;2024-03-08T07:41:07;99882.94;;;4.57;100.00
71109;BME280;59614;51.012;-1.648;2024-03-08T07:43:32;99878.56;;;4.62;100.00
71109;BME280;59614;51.012;-1.648;2024-03-08T07:46:00;99879.44;;;4.75;100.00
71109;BME280;59614;51.012;-1.648;2024-03-08T07:48:25;99877.69;;;4.71;100.00
71109;BME280;59614;51.012;-1.648;2024-03-08T07:50:52;99864.66;;;4.60;100.00
71109;BME280;59614;51.012;-1.648;2024-03-08T07:53:17;99857.63;;;4.74;100.00
71109;BME280;59614;51.012;-1.648;2024-03-08T07:55:42;99862.03;;;4.66;100.00
71109;BME280;59614;51.012;-1.648;2024-03-08T07:58:10;99855.84;;;4.98;100.00
71109;BME280;59614;51.012;-1.648;2024-03-08T08:00:36;99849.72;;;5.04;100.00
71109;BME280;59614;51.012;-1.648;2024-03-08T08:03:02;99845.34;;;5.15;100.00
71109;BME280;59614;51.012;-1.648;2024-03-08T08:05:27;99830.50;;;5.23;100.00
71109;BME280;59614;51.012;-1.648;2024-03-08T08:07:53;99831.41;;;5.18;100.00
71109;BME280;59614;51.012;-1.648;2024-03-08T08:10:18;99824.34;;;5.24;100.00
71109;BME280;59614;51.012;-1.648;2024-03-08T08:12:49;99824.47;;;5.04;100.00
71109;BME280;59614;51.012;-1.648;2024-03-08T08:15:15;99815.56;;;5.43;100.00
71109;BME280;59614;51.012;-1.648;2024-03-08T08:17:44;99811.13;;;5.54;100.00
71109;BME280;59614;51.012;-1.648;2024-03-08T08:20:10;99805.00;;;5.60;100.00
71109;BME280;59614;51.012;-1.648;2024-03-08T08:22:39;99810.41;;;5.27;100.00
71109;BME280;59614;51.012;-1.648;2024-03-08T08:25:09;99801.56;;;5.51;100.00
71109;BME280;59614;51.012;-1.648;2024-03-08T08:27:34;99798.81;;;5.70;99.75
71109;BME280;59614;51.012;-1.648;2024-03-08T08:30:02;99795.31;;;5.74;99.41
71109;BME280;59614;51.012;-1.648;2024-03-08T08:32:28;99784.91;;;5.65;99.94
71109;BME280;59614;51.012;-1.648;2024-03-08T08:34:53;99789.94;;;5.93;99.96
71109;BME280;59614;51.012;-1.648;2024-03-08T08:37:18;99782.19;;;5.76;98.31
71109;BME280;59614;51.012;-1.648;2024-03-08T08:39:44;99786.41;;;6.05;97.60
71109;BME280;59614;51.012;-1.648;2024-03-08T08:42:09;99777.47;;;6.26;97.03
71109;BME280;59614;51.012;-1.648;2024-03-08T08:44:35;99777.59;;;6.09;96.44
71109;BME280;59614;51.012;-1.648;2024-03-08T08:47:01;99773.28;;;6.08;95.98
71109;BME280;59614;51.012;-1.648;2024-03-08T08:49:26;99762.72;;;6.14;95.57
71109;BME280;59614;51.012;-1.648;2024-03-08T08:51:52;99756.44;;;6.33;94.76
71109;BME280;59614;51.012;-1.648;2024-03-08T08:54:18;99745.94;;;6.33;94.68
71109;BME280;59614;51.012;-1.648;2024-03-08T08:56:44;99741.53;;;6.37;94.95
71109;BME280;59614;51.012;-1.648;2024-03-08T08:59:10;99744.97;;;6.44;93.46
71109;BME280;59614;51.012;-1.648;2024-03-08T09:01:39;99744.94;;;6.47;93.98
71109;BME280;59614;51.012;-1.648;2024-03-08T09:04:04;99732.19;;;6.11;94.05
71109;BME280;59614;51.012;-1.648;2024-03-08T09:06:30;99729.94;;;6.60;92.87
71109;BME280;59614;51.012;-1.648;2024-03-08T09:08:55;99726.84;;;6.99;92.99
71109;BME280;59614;51.012;-1.648;2024-03-08T09:11:20;99725.94;;;7.01;90.10
71109;BME280;59614;51.012;-1.648;2024-03-08T09:13:45;99727.97;;;6.79;90.09
71109;BME280;59614;51.012;-1.648;2024-03-08T09:16:11;99711.97;;;6.99;89.80
71109;BME280;59614;51.012;-1.648;2024-03-08T09:18:37;99722.66;;;7.49;88.63
71109;BME280;59614;51.012;-1.648;2024-03-08T09:21:02;99705.94;;;6.92;89.66
71109;BME280;59614;51.012;-1.648;2024-03-08T09:23:28;99708.28;;;7.14;89.64
71109;BME280;59614;51.012;-1.648;2024-03-08T09:25:58;99714.25;;;7.25;88.80
71109;BME280;59614;51.012;-1.648;2024-03-08T09:28:24;99708.59;;;7.53;88.68
71109;BME280;59614;51.012;-1.648;2024-03-08T09:30:50;99705.00;;;7.57;88.50
71109;BME280;59614;51.012;-1.648;2024-03-08T09:33:15;99701.78;;;7.38;87.56
71109;BME280;59614;51.012;-1.648;2024-03-08T09:35:45;99700.56;;;7.61;86.21
71109;BME280;59614;51.012;-1.648;2024-03-08T09:38:12;99697.66;;;7.78;84.34
71109;BME280;59614;51.012;-1.648;2024-03-08T09:40:38;99692.56;;;7.69;85.42
71109;BME280;59614;51.012;-1.648;2024-03-08T09:43:06;99691.84;;;7.61;84.94
71109;BME280;59614;51.012;-1.648;2024-03-08T09:45:31;99689.44;;;7.45;85.92
71109;BME280;59614;51.012;-1.648;2024-03-08T09:48:01;99689.56;;;7.39;87.01
71109;BME280;59614;51.012;-1.648;2024-03-08T09:50:26;99682.03;;;7.72;85.02
71109;BME280;59614;51.012;-1.648;2024-03-08T09:52:55;99678.25;;;7.87;83.96
71109;BME280;59614;51.012;-1.648;2024-03-08T09:55:22;99675.06;;;8.19;82.54
71109;BME280;59614;51.012;-1.648;2024-03-08T09:57:47;99676.00;;;8.15;82.49
71109;BME280;59614;51.012;-1.648;2024-03-08T10:00:33;99664.63;;;8.15;82.10
71109;BME280;59614;51.012;-1.648;2024-03-08T10:03:02;99652.91;;;8.33;81.46
71109;BME280;59614;51.012;-1.648;2024-03-08T10:05:28;99664.63;;;8.62;80.62
71109;BME280;59614;51.012;-1.648;2024-03-08T10:07:55;99667.19;;;8.65;78.89
71109;BME280;59614;51.012;-1.648;2024-03-08T10:10:20;99655.84;;;8.63;79.63
71109;BME280;59614;51.012;-1.648;2024-03-08T10:12:48;99654.69;;;9.16;78.54
71109;BME280;59614;51.012;-1.648;2024-03-08T10:15:15;99647.50;;;9.22;77.20
71109;BME280;59614;51.012;-1.648;2024-03-08T10:17:41;99641.75;;;9.06;77.55
71109;BME280;59614;51.012;-1.648;2024-03-08T10:20:15;99641.47;;;9.19;78.28
71109;BME280;59614;51.012;-1.648;2024-03-08T10:22:41;99630.16;;;9.86;76.55
71109;BME280;59614;51.012;-1.648;2024-03-08T10:25:10;99623.41;;;10.09;75.21
71109;BME280;59614;51.012;-1.648;2024-03-08T10:27:36;99615.13;;;9.55;75.06
71109;BME280;59614;51.012;-1.648;2024-03-08T10:30:02;99623.50;;;9.71;74.52
71109;BME280;59614;51.012;-1.648;2024-03-08T10:32:27;99611.91;;;9.42;74.66
71109;BME280;59614;51.012;-1.648;2024-03-08T10:34:53;99609.06;;;9.86;75.15
71109;BME280;59614;51.012;-1.648;2024-03-08T10:37:21;99600.66;;;10.04;74.32
71109;BME280;59614;51.012;-1.648;2024-03-08T10:40:02;99591.44;;;9.88;74.12
71109;BME280;59614;51.012;-1.648;2024-03-08T10:42:40;99595.84;;;10.19;70.74
71109;BME280;59614;51.012;-1.648;2024-03-08T10:45:15;99580.38;;;10.07;72.28
71109;BME280;59614;51.012;-1.648;2024-03-08T10:47:46;99577.03;;;10.01;71.11
71109;BME280;59614;51.012;-1.648;2024-03-08T10:50:18;99574.88;;;9.83;71.30
71109;BME280;59614;51.012;-1.648;2024-03-08T10:52:49;99562.75;;;10.09;70.71
71109;BME280;59614;51.012;-1.648;2024-03-08T10:55:16;99556.81;;;10.32;69.71
71109;BME280;59614;51.012;-1.648;2024-03-08T10:57:42;99561.34;;;10.58;67.61
71109;BME280;59614;51.012;-1.648;2024-03-08T11:00:09;99559.47;;;10.00;69.20
71109;BME280;59614;51.012;-1.648;2024-03-08T11:02:36;99555.13;;;10.61;68.65
71109;BME280;59614;51.012;-1.648;2024-03-08T11:05:09;99554.53;;;10.79;67.68
71109;BME280;59614;51.012;-1.648;2024-03-08T11:07:41;99557.69;;;10.62;66.65
71109;BME280;59614;51.012;-1.648;2024-03-08T11:10:19;99546.44;;;10.57;65.55
71109;BME280;59614;51.012;-1.648;2024-03-08T11:12:45;99547.13;;;10.91;65.21
71109;BME280;59614;51.012;-1.648;2024-03-08T11:15:12;99521.13;;;11.32;65.61
71109;BME280;59614;51.012;-1.648;2024-03-08T11:17:50;99531.06;;;11.25;63.35
71109;BME280;59614;51.012;-1.648;2024-03-08T11:20:17;99529.09;;;11.05;64.47
71109;BME280;59614;51.012;-1.648;2024-03-08T11:22:55;99521.28;;;11.27;63.25
71109;BME280;59614;51.012;-1.648;2024-03-08T11:25:35;99521.91;;;11.36;63.78
71109;BME280;59614;51.012;-1.648;2024-03-08T11:30:46;99521.53;;;11.47;62.62
71109;BME280;59614;51.012;-1.648;2024-03-08T11:33:16;99518.84;;;10.94;62.73
71109;BME280;59614;51.012;-1.648;2024-03-08T11:35:42;99517.63;;;10.78;61.19
71109;BME280;59614;51.012;-1.648;2024-03-08T11:38:11;99514.34;;;10.70;62.08
71109;BME280;59614;51.012;-1.648;2024-03-08T11:40:36;99506.22;;;10.49;61.53
71109;BME280;59614;51.012;-1.648;2024-03-08T11:43:03;99521.81;;;10.57;61.53
71109;BME280;59614;51.012;-1.648;2024-03-08T11:45:32;99520.03;;;11.12;61.33
71109;BME280;59614;51.012;-1.648;2024-03-08T11:48:02;99515.75;;;11.35;58.95
71109;BME280;59614;51.012;-1.648;2024-03-08T11:50:28;99509.06;;;11.25;59.21
71109;BME280;59614;51.012;-1.648;2024-03-08T11:53:00;99506.72;;;11.42;58.40
71109;BME280;59614;51.012;-1.648;2024-03-08T11:55:26;99516.22;;;11.48;59.69
71109;BME280;59614;51.012;-1.648;2024-03-08T11:58:00;99505.94;;;11.39;58.20
71109;BME280;59614;51.012;-1.648;2024-03-08T12:00:25;99519.94;;;11.16;57.01
71109;BME280;59614;51.012;-1.648;2024-03-08T12:03:08;99511.34;;;11.09;57.66
71109;BME280;59614;51.012;-1.648;2024-03-08T12:05:35;99500.78;;;11.36;58.17
71109;BME280;59614;51.012;-1.648;2024-03-08T12:08:02;99506.16;;;11.33;57.73
71109;BME280;59614;51.012;-1.648;2024-03-08T12:10:27;99494.69;;;11.34;58.17
71109;BME280;59614;51.012;-1.648;2024-03-08T12:12:54;99490.53;;;11.52;57.57
71109;BME280;59614;51.012;-1.648;2024-03-08T12:15:22;99493.75;;;11.60;57.57
71109;BME280;59614;51.012;-1.648;2024-03-08T12:17:50;99491.03;;;11.87;56.93
71109;BME280;59614;51.012;-1.648;2024-03-08T12:20:23;99491.25;;;11.81;57.12
71109;BME280;59614;51.012;-1.648;2024-03-08T12:22:55;99501.44;;;11.92;58.80
71109;BME280;59614;51.012;-1.648;2024-03-08T12:25:22;99481.25;;;11.40;56.94
71109;BME280;59614;51.012;-1.648;2024-03-08T12:27:48;99483.22;;;10.81;56.46
71109;BME280;59614;51.012;-1.648;2024-03-08T12:33:01;99432.63;;;11.20;56.13
71109;BME280;59614;51.012;-1.648;2024-03-08T12:35:28;99444.41;;;11.84;54.49
71109;BME280;59614;51.012;-1.648;2024-03-08T12:37:58;99441.09;;;11.79;53.61
71109;BME280;59614;51.012;-1.648;2024-03-08T12:40:31;99439.84;;;12.35;54.74
71109;BME280;59614;51.012;-1.648;2024-03-08T12:42:59;99433.09;;;12.28;53.48
71109;BME280;59614;51.012;-1.648;2024-03-08T12:45:26;99430.00;;;12.39;52.69
71109;BME280;59614;51.012;-1.648;2024-03-08T12:47:52;99427.16;;;12.66;52.93
71109;BME280;59614;51.012;-1.648;2024-03-08T12:50:19;99409.75;;;13.03;53.59
71109;BME280;59614;51.012;-1.648;2024-03-08T12:52:44;99415.09;;;13.22;53.55